createdAt,value
2018-10-09T00:01:50.461Z,10.70
2018-10-09T00:04:18.708Z,10.40
2018-10-09T00:06:46.932Z,9.53
2018-10-09T00:09:15.150Z,11.40
2018-10-09T00:11:43.353Z,12.33
2018-10-09T00:14:11.567Z,9.17
2018-10-09T00:16:39.784Z,14.10
2018-10-09T00:19:08.009Z,12.87
2018-10-09T00:21:36.237Z,10.50
2018-10-09T00:24:04.481Z,10.93
2018-10-09T00:26:32.705Z,12.33
2018-10-09T00:29:00.950Z,12.67
2018-10-09T00:31:29.170Z,13.77
2018-10-09T00:33:57.398Z,15.60
2018-10-09T00:36:25.693Z,14.30
2018-10-09T00:38:53.928Z,19.00
2018-10-09T00:41:22.158Z,14.57
2018-10-09T00:43:50.399Z,17.33
2018-10-09T00:46:18.634Z,16.63
2018-10-09T00:48:46.907Z,15.10
2018-10-09T00:51:15.189Z,14.23
2018-10-09T00:53:43.402Z,13.60
2018-10-09T00:56:11.653Z,14.27
2018-10-09T00:58:39.857Z,14.37
2018-10-09T01:01:08.337Z,13.10
2018-10-09T01:03:36.585Z,12.00
2018-10-09T01:06:04.893Z,11.60
2018-10-09T01:08:33.120Z,15.50
2018-10-09T01:11:01.853Z,12.57
2018-10-09T01:13:31.194Z,11.97
2018-10-09T01:15:59.417Z,13.97
2018-10-09T01:18:27.628Z,13.10
2018-10-09T01:20:55.888Z,12.17
2018-10-09T01:23:24.077Z,11.93
2018-10-09T01:25:52.318Z,12.03
2018-10-09T01:28:20.574Z,12.43
2018-10-09T01:30:48.816Z,11.03
2018-10-09T01:33:20.117Z,9.43
2018-10-09T01:35:48.337Z,12.63
2018-10-09T01:38:16.573Z,10.23
2018-10-09T01:40:44.817Z,10.63
2018-10-09T01:43:13.014Z,15.00
2018-10-09T01:45:41.215Z,11.87
2018-10-09T01:48:09.457Z,11.33
2018-10-09T01:50:37.760Z,10.33
2018-10-09T01:53:06.028Z,11.00
2018-10-09T01:55:34.240Z,11.33
2018-10-09T01:58:02.501Z,10.47
2018-10-09T02:00:30.689Z,11.60
2018-10-09T02:02:58.921Z,11.97
2018-10-09T02:05:27.153Z,9.30
2018-10-09T02:07:55.498Z,11.43
2018-10-09T02:10:23.744Z,7.93
2018-10-09T02:12:51.970Z,13.30
2018-10-09T02:15:20.235Z,12.20
2018-10-09T02:17:48.711Z,11.37
2018-10-09T02:20:16.953Z,14.20
2018-10-09T02:22:46.082Z,12.10
2018-10-09T02:25:14.298Z,11.13
2018-10-09T02:27:42.544Z,12.37
2018-10-09T02:30:11.138Z,12.13
2018-10-09T02:32:39.386Z,10.80
2018-10-09T02:35:07.628Z,14.20
2018-10-09T02:37:39.742Z,13.37
2018-10-09T02:40:08.021Z,11.30
2018-10-09T02:42:36.258Z,13.17
2018-10-09T02:47:55.275Z,13.67
2018-10-09T02:50:25.585Z,11.57
2018-10-09T02:52:53.816Z,15.53
2018-10-09T02:55:22.067Z,12.87
2018-10-09T02:57:50.268Z,12.30
2018-10-09T03:00:18.500Z,15.57
2018-10-09T03:02:46.730Z,14.30
2018-10-09T03:05:14.957Z,14.20
2018-10-09T03:07:43.253Z,14.40
2018-10-09T03:10:11.456Z,18.53
2018-10-09T03:12:40.403Z,16.57
2018-10-09T03:15:08.771Z,15.83
2018-10-09T03:17:37.005Z,13.73
2018-10-09T03:20:05.278Z,12.50
2018-10-09T03:22:33.471Z,14.17
2018-10-09T03:25:01.673Z,13.00
2018-10-09T03:27:42.333Z,15.57
2018-10-09T03:30:11.657Z,16.10
2018-10-09T03:32:39.861Z,18.23
2018-10-09T03:35:08.286Z,21.97
2018-10-09T03:37:36.691Z,16.90
2018-10-09T03:40:04.985Z,15.37
2018-10-09T03:42:33.243Z,17.47
2018-10-09T03:45:01.810Z,15.60
2018-10-09T03:47:30.052Z,18.33
2018-10-09T03:49:58.268Z,16.07
2018-10-09T03:52:26.495Z,17.40
2018-10-09T03:54:54.730Z,17.27
2018-10-09T03:57:22.986Z,17.53
2018-10-09T03:59:51.189Z,15.70
2018-10-09T04:02:19.401Z,16.30
2018-10-09T04:04:47.734Z,15.00
2018-10-09T04:07:15.981Z,16.13
2018-10-09T04:09:44.576Z,14.17
2018-10-09T04:12:12.783Z,16.73
2018-10-09T04:14:42.036Z,15.30
2018-10-09T04:17:10.269Z,18.77
2018-10-09T04:19:38.484Z,18.33
2018-10-09T04:22:07.873Z,15.97
2018-10-09T04:24:36.138Z,17.10
2018-10-09T04:27:04.514Z,17.33
2018-10-09T04:29:32.832Z,16.97
2018-10-09T04:32:00.981Z,19.30
2018-10-09T04:34:29.216Z,19.27
2018-10-09T04:36:57.453Z,18.43
2018-10-09T04:39:25.676Z,22.30
2018-10-09T04:41:53.896Z,18.97
2018-10-09T04:44:22.110Z,17.33
2018-10-09T04:46:50.350Z,16.77
2018-10-09T04:49:18.570Z,14.83
2018-10-09T04:51:46.801Z,15.83
2018-10-09T04:54:15.046Z,16.40
2018-10-09T04:56:43.286Z,21.17
2018-10-09T04:59:11.577Z,20.10
2018-10-09T05:01:39.778Z,17.73
2018-10-09T05:04:07.989Z,17.47
2018-10-09T05:06:36.340Z,17.63
2018-10-09T05:09:07.751Z,18.47
2018-10-09T05:11:35.948Z,18.17
2018-10-09T05:14:04.199Z,24.03
2018-10-09T05:16:32.474Z,20.60
2018-10-09T05:19:00.680Z,21.00
2018-10-09T05:21:28.907Z,20.70
2018-10-09T05:23:57.205Z,20.87
2018-10-09T05:26:25.452Z,25.43
2018-10-09T05:28:54.029Z,25.50
2018-10-09T05:31:22.399Z,22.17
2018-10-09T05:33:54.112Z,24.97
2018-10-09T05:36:22.371Z,24.40
2018-10-09T05:38:50.601Z,22.63
2018-10-09T05:41:18.840Z,20.17
2018-10-09T05:43:47.087Z,24.57
2018-10-09T05:46:17.330Z,23.40
2018-10-09T05:48:45.521Z,21.90
2018-10-09T05:51:13.772Z,20.73
2018-10-09T05:53:41.974Z,19.80
2018-10-09T05:56:10.213Z,22.70
2018-10-09T05:58:38.424Z,20.80
2018-10-09T06:01:06.849Z,16.83
2018-10-09T06:03:35.065Z,20.17
2018-10-09T06:06:03.373Z,19.77
2018-10-09T06:08:31.721Z,20.53
2018-10-09T06:11:00.073Z,19.13
2018-10-09T06:13:29.361Z,18.50
2018-10-09T06:15:58.454Z,20.73
2018-10-09T06:18:26.699Z,20.30
2018-10-09T06:20:54.934Z,18.40
2018-10-09T06:23:24.091Z,22.50
2018-10-09T06:25:53.384Z,20.27
2018-10-09T06:28:21.626Z,18.20
2018-10-09T06:30:49.859Z,18.23
2018-10-09T06:33:18.133Z,19.73
2018-10-09T06:35:46.360Z,20.47
2018-10-09T06:38:14.592Z,19.57
2018-10-09T06:40:42.874Z,21.13
2018-10-09T06:43:11.049Z,23.27
2018-10-09T06:45:39.269Z,24.57
2018-10-09T06:48:07.573Z,26.03
2018-10-09T06:50:35.817Z,22.23
2018-10-09T06:53:04.074Z,22.30
2018-10-09T06:55:32.382Z,23.33
2018-10-09T06:58:00.621Z,27.90
2018-10-09T07:00:28.883Z,24.90
2018-10-09T07:02:59.905Z,24.27
2018-10-09T07:05:28.337Z,25.23
2018-10-09T07:07:57.045Z,23.00
2018-10-09T07:10:25.362Z,23.27
2018-10-09T07:12:53.650Z,24.03
2018-10-09T07:15:21.873Z,25.13
2018-10-09T07:17:53.516Z,21.53
2018-10-09T07:20:21.741Z,25.37
2018-10-09T07:22:49.960Z,21.40
2018-10-09T07:25:18.197Z,23.40
2018-10-09T07:27:46.518Z,27.00
2018-10-09T07:30:14.669Z,24.90
2018-10-09T07:32:42.915Z,26.77
2018-10-09T07:35:11.635Z,25.03
2018-10-09T07:37:41.079Z,26.63
2018-10-09T07:40:09.290Z,32.07
2018-10-09T07:42:39.530Z,29.13
2018-10-09T07:45:07.853Z,27.07
2018-10-09T07:47:36.109Z,33.13
2018-10-09T07:50:04.556Z,27.23
2018-10-09T07:52:32.854Z,30.10
2018-10-09T07:55:01.221Z,30.97
2018-10-09T07:57:29.441Z,28.33
2018-10-09T07:59:59.722Z,30.93
2018-10-09T08:02:29.008Z,28.37
2018-10-09T08:05:02.090Z,27.63
2018-10-09T08:07:31.337Z,32.53
2018-10-09T08:09:59.604Z,29.63
2018-10-09T08:12:29.907Z,29.70
2018-10-09T08:15:00.169Z,28.93
2018-10-09T08:17:28.421Z,30.67
2018-10-09T08:19:56.778Z,27.83
2018-10-09T08:22:25.129Z,28.07
2018-10-09T08:24:53.469Z,28.53
2018-10-09T08:27:25.016Z,22.70
2018-10-09T08:29:57.724Z,28.23
2018-10-09T08:32:26.063Z,27.90
2018-10-09T08:34:54.265Z,28.13
2018-10-09T08:37:25.825Z,25.70
2018-10-09T08:39:54.134Z,30.23
2018-10-09T08:42:22.356Z,25.50
2018-10-09T08:44:50.565Z,24.50
2018-10-09T08:47:20.926Z,29.47
2018-10-09T08:49:51.197Z,29.87
2018-10-09T08:52:19.498Z,30.07
2018-10-09T08:54:47.785Z,36.80
2018-10-09T08:57:16.071Z,29.03
2018-10-09T08:59:46.293Z,27.27
2018-10-09T09:02:14.553Z,26.50
2018-10-09T09:04:42.759Z,25.23
2018-10-09T09:07:10.966Z,26.43
2018-10-09T09:09:42.697Z,28.97
2018-10-09T09:12:10.842Z,25.67
2018-10-09T09:14:39.058Z,24.87
2018-10-09T09:17:07.295Z,23.73
2018-10-09T09:19:35.665Z,25.23
2018-10-09T09:22:03.908Z,22.00
2018-10-09T09:24:33.214Z,25.03
2018-10-09T09:27:01.788Z,23.63
2018-10-09T09:29:30.065Z,22.13
2018-10-09T09:31:59.366Z,22.60
2018-10-09T09:34:27.637Z,24.67
2018-10-09T09:36:55.908Z,23.73
2018-10-09T09:39:24.212Z,24.73
2018-10-09T09:41:52.463Z,21.37
2018-10-09T09:44:20.831Z,25.70
2018-10-09T09:46:49.117Z,23.10
2018-10-09T09:49:18.401Z,23.83
2018-10-09T09:51:46.741Z,23.77
2018-10-09T09:54:15.081Z,22.17
2018-10-09T09:56:43.366Z,23.70
2018-10-09T09:59:11.785Z,25.07
2018-10-09T10:01:41.506Z,23.23
2018-10-09T10:04:10.032Z,23.87
2018-10-09T10:06:38.290Z,20.57
2018-10-09T10:09:07.567Z,22.73
2018-10-09T10:11:35.843Z,23.77
2018-10-09T10:14:04.086Z,21.27
2018-10-09T10:16:38.861Z,21.70
2018-10-09T10:19:07.338Z,24.00
2018-10-09T10:21:48.437Z,25.87
2018-10-09T10:24:22.378Z,21.07
2018-10-09T10:26:52.697Z,21.50
2018-10-09T10:29:21.991Z,20.23
2018-10-09T10:31:50.377Z,22.27
2018-10-09T10:34:20.905Z,21.80
2018-10-09T10:36:50.504Z,21.67
2018-10-09T10:39:19.449Z,23.10
2018-10-09T10:41:51.008Z,21.50
2018-10-09T10:44:19.249Z,23.03
2018-10-09T10:46:47.515Z,27.20
2018-10-09T10:49:16.805Z,28.23
2018-10-09T10:51:45.670Z,21.70
2018-10-09T10:54:15.962Z,22.50
2018-10-09T10:56:44.194Z,22.70
2018-10-09T10:59:12.414Z,19.70
2018-10-09T11:01:40.707Z,20.37
2018-10-09T11:06:48.350Z,20.07
2018-10-09T11:09:17.659Z,21.03
2018-10-09T11:11:47.977Z,20.63
2018-10-09T11:14:16.282Z,19.20
2018-10-09T11:16:44.529Z,23.17
2018-10-09T11:19:12.740Z,18.00
2018-10-09T11:21:41.061Z,22.87
2018-10-09T11:24:09.205Z,19.63
2018-10-09T11:26:38.521Z,21.10
2018-10-09T11:29:06.744Z,22.43
2018-10-09T11:31:34.985Z,19.67
2018-10-09T11:34:03.226Z,18.53
2018-10-09T11:36:31.461Z,26.93
2018-10-09T11:38:59.778Z,22.73
2018-10-09T11:41:28.037Z,21.00
2018-10-09T11:43:56.253Z,20.10
2018-10-09T11:46:24.542Z,19.47
2018-10-09T11:48:52.777Z,20.70
2018-10-09T11:51:21.098Z,18.43
2018-10-09T11:53:49.345Z,18.80
2018-10-09T11:56:17.573Z,18.00
2018-10-09T11:58:45.899Z,18.03
2018-10-09T12:01:14.056Z,17.90
2018-10-09T12:03:42.257Z,22.80
2018-10-09T12:06:10.501Z,15.97
2018-10-09T12:08:38.748Z,17.57
2018-10-09T12:11:07.088Z,15.53
2018-10-09T12:13:35.271Z,18.63
2018-10-09T12:16:03.522Z,16.07
2018-10-09T12:18:31.882Z,15.60
2018-10-09T12:21:00.117Z,18.57
2018-10-09T12:23:28.350Z,17.33
2018-10-09T12:25:56.604Z,17.57
2018-10-09T12:28:24.861Z,15.60
2018-10-09T12:30:53.089Z,15.53
2018-10-09T12:33:21.394Z,15.20
2018-10-09T12:35:49.616Z,16.70
2018-10-09T12:38:17.933Z,16.77
2018-10-09T12:40:46.290Z,16.63
2018-10-09T12:43:14.568Z,15.90
2018-10-09T12:45:42.794Z,21.90
2018-10-09T12:48:13.145Z,17.87
2018-10-09T12:50:41.390Z,18.77
2018-10-09T12:53:09.633Z,17.97
2018-10-09T12:55:37.859Z,19.63
2018-10-09T12:58:06.073Z,19.53
2018-10-09T13:00:34.313Z,18.03
2018-10-09T13:03:02.593Z,17.63
2018-10-09T13:05:30.844Z,17.37
2018-10-09T13:07:59.093Z,17.93
2018-10-09T13:10:27.390Z,21.53
2018-10-09T13:12:57.709Z,18.40
2018-10-09T13:15:26.363Z,19.17
2018-10-09T13:17:54.689Z,20.53
2018-10-09T13:20:24.050Z,17.40
2018-10-09T13:22:52.486Z,17.63
2018-10-09T13:25:20.922Z,20.27
2018-10-09T13:27:49.126Z,16.50
2018-10-09T13:30:17.376Z,19.43
2018-10-09T13:32:46.675Z,20.07
2018-10-09T13:35:14.905Z,19.60
2018-10-09T13:37:43.146Z,21.30
2018-10-09T13:40:11.397Z,18.67
2018-10-09T13:42:39.650Z,18.97
2018-10-09T13:45:07.953Z,18.33
2018-10-09T13:47:36.298Z,19.37
2018-10-09T13:50:04.502Z,16.87
2018-10-09T13:52:32.820Z,16.93
2018-10-09T13:55:01.141Z,15.43
2018-10-09T13:57:29.431Z,16.57
2018-10-09T13:59:57.669Z,15.87
2018-10-09T14:02:26.082Z,15.40
2018-10-09T14:04:54.413Z,17.97
2018-10-09T14:07:22.649Z,17.43
2018-10-09T14:09:50.880Z,18.23
2018-10-09T14:12:19.307Z,15.20
2018-10-09T14:14:47.517Z,16.70
2018-10-09T14:17:15.733Z,17.23
2018-10-09T14:19:44.028Z,20.37
2018-10-09T14:22:12.505Z,17.87
2018-10-09T14:24:43.897Z,17.97
2018-10-09T14:27:12.125Z,15.00
2018-10-09T14:29:40.387Z,14.23
2018-10-09T14:32:08.629Z,15.60
2018-10-09T14:34:36.863Z,13.87
2018-10-09T14:37:05.192Z,16.50
2018-10-09T14:39:33.406Z,14.00
2018-10-09T14:42:01.653Z,15.37
2018-10-09T14:44:29.933Z,14.97
2018-10-09T14:46:58.178Z,14.83
2018-10-09T14:49:27.370Z,16.13
2018-10-09T14:51:55.561Z,16.97
2018-10-09T14:54:24.232Z,16.47
2018-10-09T14:56:52.521Z,17.97
2018-10-09T14:59:20.824Z,20.50
2018-10-09T15:01:49.091Z,19.07
2018-10-09T15:04:17.336Z,14.80
2018-10-09T15:06:52.601Z,17.50
2018-10-09T15:09:20.900Z,14.57
2018-10-09T15:11:49.135Z,16.30
2018-10-09T15:14:18.783Z,18.23
2018-10-09T15:16:48.265Z,15.17
2018-10-09T15:19:16.404Z,18.77
2018-10-09T15:21:47.105Z,18.53
2018-10-09T15:24:15.309Z,18.77
2018-10-09T15:26:43.582Z,15.23
2018-10-09T15:29:11.939Z,18.47
2018-10-09T15:31:40.052Z,16.63
2018-10-09T15:34:08.261Z,15.93
2018-10-09T15:36:36.499Z,17.17
2018-10-09T15:39:07.660Z,16.87
2018-10-09T15:41:35.995Z,16.47
2018-10-09T15:44:04.172Z,15.57
2018-10-09T15:46:32.427Z,17.43
2018-10-09T15:49:00.630Z,15.93
2018-10-09T15:51:28.909Z,15.87
2018-10-09T15:53:57.126Z,15.70
2018-10-09T15:56:25.385Z,14.67
2018-10-09T15:58:53.689Z,19.50
2018-10-09T16:01:21.906Z,17.20
2018-10-09T16:03:50.171Z,17.57
2018-10-09T16:06:18.401Z,15.93
2018-10-09T16:08:46.674Z,18.57
2018-10-09T16:11:14.941Z,16.83
2018-10-09T16:13:44.226Z,15.37
2018-10-09T16:16:14.682Z,15.47
2018-10-09T16:18:42.937Z,18.63
2018-10-09T16:21:11.225Z,18.53
2018-10-09T16:23:39.422Z,16.83
2018-10-09T16:26:07.701Z,18.27
2018-10-09T16:28:35.901Z,17.77
2018-10-09T16:31:04.113Z,19.60
2018-10-09T16:33:32.393Z,17.93
2018-10-09T16:36:00.617Z,16.47
2018-10-09T16:38:28.845Z,16.33
2018-10-09T16:40:57.110Z,18.13
2018-10-09T16:43:25.322Z,18.07
2018-10-09T16:45:53.717Z,16.77
2018-10-09T16:48:23.018Z,15.60
2018-10-09T16:50:51.326Z,19.57
2018-10-09T16:53:19.578Z,16.47
2018-10-09T16:55:47.790Z,15.57
2018-10-09T16:58:16.013Z,17.23
2018-10-09T17:00:44.246Z,18.60
2018-10-09T17:03:12.464Z,18.33
2018-10-09T17:05:40.784Z,22.47
2018-10-09T17:08:09.097Z,19.97
2018-10-09T17:10:37.357Z,19.23
2018-10-09T17:13:05.602Z,19.77
2018-10-09T17:15:33.937Z,22.97
2018-10-09T17:18:02.146Z,20.30
2018-10-09T17:20:30.357Z,19.07
2018-10-09T17:22:58.605Z,17.57
2018-10-09T17:25:26.805Z,18.70
2018-10-09T17:27:55.176Z,18.83
2018-10-09T17:30:23.401Z,18.90
2018-10-09T17:32:52.305Z,19.13
2018-10-09T17:35:20.618Z,19.47
2018-10-09T17:37:52.222Z,26.57
2018-10-09T17:40:20.525Z,23.13
2018-10-09T17:42:49.446Z,22.57
2018-10-09T17:45:17.724Z,23.77
2018-10-09T17:47:45.991Z,23.20
2018-10-09T17:50:14.215Z,25.40
2018-10-09T17:52:42.466Z,23.37
2018-10-09T17:55:10.737Z,23.77
2018-10-09T17:57:39.205Z,23.37
2018-10-09T18:00:08.388Z,26.17
2018-10-09T18:02:36.764Z,25.07
2018-10-09T18:05:05.386Z,21.17
2018-10-09T18:07:33.606Z,24.50
2018-10-09T18:10:01.991Z,22.47
2018-10-09T18:12:30.210Z,24.20
2018-10-09T18:14:58.493Z,24.40
2018-10-09T18:17:26.739Z,21.90
2018-10-09T18:19:54.974Z,25.70
2018-10-09T18:22:23.173Z,21.30
2018-10-09T18:24:51.511Z,24.00
2018-10-09T18:27:19.733Z,22.77
2018-10-09T18:29:47.971Z,25.37
2018-10-09T18:32:16.206Z,24.77
2018-10-09T18:34:44.504Z,23.20
2018-10-09T18:37:12.763Z,29.53
2018-10-09T18:39:41.025Z,29.33
2018-10-09T18:42:09.282Z,24.83
2018-10-09T18:44:37.584Z,24.50
2018-10-09T18:47:10.015Z,26.60
2018-10-09T18:49:38.257Z,25.80
2018-10-09T18:52:06.510Z,25.00
2018-10-09T18:54:34.729Z,24.43
2018-10-09T18:57:02.997Z,22.57
2018-10-09T18:59:31.250Z,22.00
2018-10-09T19:01:59.469Z,22.23
2018-10-09T19:04:27.725Z,27.03
2018-10-09T19:06:56.097Z,27.83
2018-10-09T19:09:24.332Z,24.87
2018-10-09T19:11:52.557Z,24.33
2018-10-09T19:14:20.871Z,26.50
2018-10-09T19:16:50.166Z,26.97
2018-10-09T19:19:18.427Z,23.27
2018-10-09T19:21:53.354Z,24.87
2018-10-09T19:24:21.635Z,23.43
2018-10-09T19:26:49.845Z,25.23
2018-10-09T19:29:18.091Z,24.93
2018-10-09T19:31:46.410Z,25.53
2018-10-09T19:34:14.636Z,29.57
2018-10-09T19:36:42.878Z,25.90
2018-10-09T19:39:13.026Z,23.97
2018-10-09T19:41:41.269Z,26.27
2018-10-09T19:44:09.525Z,30.33
2018-10-09T19:46:38.429Z,26.63
2018-10-09T19:49:06.722Z,24.53
2018-10-09T19:51:34.999Z,22.73
2018-10-09T19:54:03.232Z,21.73
2018-10-09T19:56:31.853Z,21.77
2018-10-09T19:59:00.166Z,24.07
2018-10-09T20:01:28.438Z,25.07
2018-10-09T20:03:56.665Z,24.03
2018-10-09T20:06:25.945Z,25.60
2018-10-09T20:08:54.192Z,28.27
2018-10-09T20:11:22.413Z,26.27
2018-10-09T20:13:50.624Z,22.83
2018-10-09T20:16:18.873Z,22.93
2018-10-09T20:18:47.174Z,23.40
2018-10-09T20:21:15.410Z,26.23
2018-10-09T20:23:43.619Z,24.27
2018-10-09T20:26:11.918Z,24.27
2018-10-09T20:28:40.146Z,26.03
2018-10-09T20:31:08.362Z,24.30
2018-10-09T20:33:36.586Z,24.50
2018-10-09T20:36:04.803Z,25.30
2018-10-09T20:38:33.089Z,24.47
2018-10-09T20:41:01.378Z,23.40
2018-10-09T20:43:29.602Z,26.33
2018-10-09T20:45:57.849Z,24.57
2018-10-09T20:48:26.102Z,26.67
2018-10-09T20:50:54.331Z,24.73
2018-10-09T20:53:22.574Z,30.27
2018-10-09T20:55:50.873Z,26.03
2018-10-09T20:58:19.138Z,27.97
2018-10-09T21:00:47.347Z,26.20
2018-10-09T21:03:15.601Z,24.13
2018-10-09T21:05:43.952Z,25.57
2018-10-09T21:08:12.094Z,27.80
2018-10-09T21:10:40.293Z,24.23
2018-10-09T21:13:08.516Z,23.57
2018-10-09T21:15:36.749Z,24.80
2018-10-09T21:18:05.002Z,22.43
2018-10-09T21:20:33.230Z,24.60
2018-10-09T21:23:01.445Z,26.17
2018-10-09T21:25:29.717Z,25.80
2018-10-09T21:27:57.931Z,26.07
2018-10-09T21:30:27.218Z,26.97
2018-10-09T21:32:55.443Z,25.80
2018-10-09T21:35:23.649Z,25.77
2018-10-09T21:37:51.885Z,24.63
2018-10-09T21:40:20.132Z,26.47
2018-10-09T21:42:48.326Z,24.20
2018-10-09T21:45:16.598Z,26.90
2018-10-09T21:47:50.180Z,27.23
2018-10-09T21:50:18.450Z,24.43
2018-10-09T21:52:46.668Z,25.83
2018-10-09T21:55:19.798Z,27.33
2018-10-09T21:57:48.282Z,25.97
2018-10-09T22:00:16.528Z,25.57
2018-10-09T22:02:44.807Z,25.37
2018-10-09T22:05:13.036Z,26.27
2018-10-09T22:07:41.296Z,25.17
2018-10-09T22:10:09.533Z,25.30
2018-10-09T22:12:37.777Z,25.87
2018-10-09T22:15:06.254Z,23.80
2018-10-09T22:17:34.521Z,23.57
2018-10-09T22:20:02.779Z,25.87
2018-10-09T22:22:31.010Z,27.73
2018-10-09T22:24:59.246Z,23.73
2018-10-09T22:27:27.491Z,25.80
2018-10-09T22:29:55.736Z,26.67
2018-10-09T22:32:23.966Z,25.50
2018-10-09T22:34:52.200Z,24.63
2018-10-09T22:37:21.537Z,23.67
2018-10-09T22:39:49.757Z,26.97
2018-10-09T22:42:17.980Z,26.63
2018-10-09T22:44:46.181Z,23.47
2018-10-09T22:47:14.406Z,24.87
2018-10-09T22:49:42.655Z,22.63
2018-10-09T22:52:10.898Z,24.47
2018-10-09T22:54:39.160Z,22.70
2018-10-09T22:57:07.402Z,25.93
2018-10-09T22:59:35.678Z,24.33
2018-10-09T23:02:03.917Z,26.77
2018-10-09T23:04:32.125Z,23.60
2018-10-09T23:07:00.355Z,23.37
2018-10-09T23:09:28.576Z,23.17
2018-10-09T23:11:56.881Z,23.50
2018-10-09T23:14:25.244Z,22.73
2018-10-09T23:16:53.539Z,22.60
2018-10-09T23:19:23.891Z,22.40
2018-10-09T23:21:52.109Z,21.77
2018-10-09T23:24:20.346Z,23.10
2018-10-09T23:26:48.638Z,24.97
2018-10-09T23:29:16.862Z,25.50
2018-10-09T23:31:45.154Z,22.23
2018-10-09T23:34:13.370Z,23.97
2018-10-09T23:36:41.622Z,26.70
2018-10-09T23:39:09.905Z,24.43
2018-10-09T23:41:38.126Z,28.40
2018-10-09T23:44:06.437Z,28.70
2018-10-09T23:46:34.700Z,24.83
2018-10-09T23:49:02.957Z,28.93
2018-10-09T23:51:31.191Z,32.10
2018-10-09T23:53:59.446Z,29.40
2018-10-09T23:56:27.743Z,32.40
2018-10-09T23:58:55.999Z,30.33
